Time;durP1;ratioP1;P1;durP2;ratioP2;P2;SDS_P1;SDS_P2;PMS_P1;PMS_P2;Temp;Humidity;BMP_temperature;BMP_pressure;BME280_temperature;BME280_humidity;BME280_pressure;Samples;Min_cycle;Max_cycle;Signal;HPM_P1;HPM_P2
2023/05/18 00:01:21;;;;;;;5.47;3.50;;;7.10;99.90;;;;;;5047432;28;20243;-73
2023/05/18 00:03:48;;;;;;;5.60;3.20;;;7.10;99.90;;;;;;5048174;28;20232;-74
2023/05/18 00:06:15;;;;;;;8.23;3.33;;;7.00;99.90;;;;;;5054639;28;20201;-74
2023/05/18 00:08:41;;;;;;;10.20;3.50;;;7.00;99.90;;;;;;5045100;28;20608;-74
2023/05/18 00:11:08;;;;;;;5.43;2.80;;;6.90;99.90;;;;;;5048271;28;20652;-74
2023/05/18 00:13:35;;;;;;;6.47;3.07;;;6.90;99.90;;;;;;5041386;28;20684;-75
2023/05/18 00:16:02;;;;;;;6.87;3.30;;;6.90;99.90;;;;;;5058810;28;20221;-73
2023/05/18 00:18:28;;;;;;;9.37;3.23;;;6.80;99.90;;;;;;5046392;28;20207;-75
2023/05/18 00:20:59;;;;;;;6.10;3.20;;;6.80;99.90;;;;;;5041096;28;20253;-75
2023/05/18 00:23:29;;;;;;;8.13;3.73;;;6.70;99.90;;;;;;5049201;28;20324;-74
2023/05/18 00:26:00;;;;;;;5.17;3.80;;;6.70;99.90;;;;;;5048603;28;20231;-75
2023/05/18 00:28:28;;;;;;;6.43;3.80;;;6.70;99.90;;;;;;5049013;28;20341;-74
2023/05/18 00:30:55;;;;;;;9.57;3.47;;;6.60;99.90;;;;;;5049219;28;20607;-75
2023/05/18 00:33:22;;;;;;;9.97;4.30;;;6.60;99.90;;;;;;5058153;28;20604;-74
2023/05/18 00:35:49;;;;;;;7.40;3.40;;;6.60;99.90;;;;;;5042747;28;20501;-74
2023/05/18 00:38:16;;;;;;;7.13;3.47;;;6.50;99.90;;;;;;5041365;28;20205;-75
2023/05/18 00:40:43;;;;;;;5.90;3.63;;;6.50;99.90;;;;;;5049079;28;20725;-75
2023/05/18 00:43:10;;;;;;;6.57;3.50;;;6.50;99.90;;;;;;5044654;28;20718;-75
2023/05/18 00:45:37;;;;;;;6.53;3.60;;;6.50;99.90;;;;;;5045233;28;20223;-74
2023/05/18 00:48:04;;;;;;;7.87;3.27;;;6.40;99.90;;;;;;5045226;28;20250;-74
2023/05/18 00:50:31;;;;;;;8.80;3.70;;;6.40;99.90;;;;;;5043747;28;20210;-74
2023/05/18 00:52:58;;;;;;;9.20;3.60;;;6.40;99.90;;;;;;5047954;28;20284;-75
2023/05/18 00:55:27;;;;;;;7.37;3.23;;;6.30;99.90;;;;;;5054009;28;20201;-74
2023/05/18 00:57:55;;;;;;;8.20;3.20;;;6.30;99.90;;;;;;5044368;28;20276;-75
2023/05/18 01:00:23;;;;;;;9.23;3.40;;;6.30;99.90;;;;;;5047319;28;20220;-75
2023/05/18 01:02:51;;;;;;;6.03;3.37;;;6.30;99.90;;;;;;5046044;28;20234;-76
2023/05/18 01:05:20;;;;;;;9.23;3.67;;;6.20;99.90;;;;;;5043733;28;20710;-74
2023/05/18 01:07:49;;;;;;;6.13;3.60;;;6.20;99.90;;;;;;5045039;28;20534;-74
2023/05/18 01:10:18;;;;;;;7.43;3.50;;;6.10;99.90;;;;;;5041063;28;20246;-75
2023/05/18 01:13:01;;;;;;;5.37;3.23;;;6.10;99.90;;;;;;5048996;28;20257;-75
2023/05/18 01:15:36;;;;;;;7.80;3.30;;;6.10;99.90;;;;;;5045057;28;20627;-75
2023/05/18 01:18:30;;;;;;;6.00;3.30;;;6.10;99.90;;;;;;5047053;28;20227;-74
2023/05/18 01:21:18;;;;;;;8.10;3.53;;;6.10;99.90;;;;;;5038809;28;20290;-74
2023/05/18 01:23:52;;;;;;;7.80;3.47;;;6.00;99.90;;;;;;5043065;28;20985;-74
2023/05/18 01:26:30;;;;;;;4.60;3.27;;;6.00;99.90;;;;;;5047827;28;20302;-74
2023/05/18 01:28:58;;;;;;;8.23;3.77;;;;;;;;;;5047337;28;20206;-75
2023/05/18 01:31:26;;;;;;;6.83;3.27;;;5.90;99.90;;;;;;5063847;28;20314;-74
2023/05/18 01:33:53;;;;;;;9.20;3.47;;;5.90;99.90;;;;;;5047752;28;20249;-75
2023/05/18 01:36:20;;;;;;;5.40;3.10;;;5.80;99.90;;;;;;5047573;28;20206;-74
2023/05/18 01:38:47;;;;;;;7.30;3.83;;;5.80;99.90;;;;;;5047641;28;20203;-75
2023/05/18 01:41:23;;;;;;;4.73;3.03;;;5.80;99.90;;;;;;5052098;28;20243;-74
2023/05/18 01:44:19;;;;;;;7.37;3.00;;;5.80;99.90;;;;;;5044362;28;20647;-74
2023/05/18 01:46:59;;;;;;;9.67;3.30;;;5.80;99.90;;;;;;5046360;28;20212;-75
2023/05/18 01:50:07;;;;;;;8.30;3.47;;;5.70;99.90;;;;;;5046998;28;20224;-75
2023/05/18 01:52:40;;;;;;;7.27;3.00;;;5.70;99.90;;;;;;5045120;28;20223;-75
2023/05/18 01:55:09;;;;;;;7.47;3.87;;;5.70;99.90;;;;;;5042041;28;20253;-74
2023/05/18 01:57:38;;;;;;;6.83;3.27;;;5.70;99.90;;;;;;5045040;28;20221;-75
2023/05/18 02:00:07;;;;;;;9.47;3.83;;;5.70;99.90;;;;;;5047809;28;20685;-75
2023/05/18 02:02:34;;;;;;;7.17;3.63;;;5.70;99.90;;;;;;5043825;28;20233;-74
2023/05/18 02:05:03;;;;;;;8.87;3.87;;;5.70;99.90;;;;;;5044587;28;20214;-76
2023/05/18 02:07:30;;;;;;;10.07;3.73;;;5.60;99.90;;;;;;5051480;28;20230;-74
2023/05/18 02:09:58;;;;;;;6.87;3.50;;;5.60;99.90;;;;;;5047461;28;20204;-75
2023/05/18 02:12:25;;;;;;;8.07;4.10;;;5.60;99.90;;;;;;5046316;28;20236;-75
2023/05/18 02:14:51;;;;;;;7.60;4.17;;;5.60;99.90;;;;;;5047627;28;20662;-74
2023/05/18 02:17:18;;;;;;;6.03;3.43;;;5.60;99.90;;;;;;5049391;28;20233;-75
2023/05/18 02:19:47;;;;;;;8.73;3.90;;;5.60;99.90;;;;;;5051294;28;20209;-74
2023/05/18 02:22:14;;;;;;;10.23;4.23;;;5.50;99.90;;;;;;5048709;28;20211;-75
2023/05/18 02:24:41;;;;;;;7.90;3.63;;;5.50;99.90;;;;;;5051485;28;20292;-76
2023/05/18 02:27:08;;;;;;;8.13;3.97;;;5.50;99.90;;;;;;5049292;28;20198;-75
2023/05/18 02:29:36;;;;;;;6.03;3.67;;;5.50;99.90;;;;;;5047014;28;20253;-74
2023/05/18 02:32:03;;;;;;;5.07;2.90;;;5.50;99.90;;;;;;5050688;28;20713;-75
2023/05/18 02:34:32;;;;;;;5.17;3.30;;;5.40;99.90;;;;;;5046163;28;20203;-74
2023/05/18 02:37:02;;;;;;;5.53;3.67;;;5.50;99.90;;;;;;5046500;28;20198;-75
2023/05/18 02:39:29;;;;;;;12.83;3.83;;;5.40;99.90;;;;;;5044144;28;20210;-76
2023/05/18 02:41:56;;;;;;;8.80;3.90;;;5.40;99.90;;;;;;5045925;28;20224;-75
2023/05/18 02:44:24;;;;;;;5.27;3.70;;;5.40;99.90;;;;;;5049912;28;20234;-74
2023/05/18 02:46:51;;;;;;;5.47;3.50;;;5.30;99.90;;;;;;5051176;28;20251;-74
2023/05/18 02:49:18;;;;;;;9.17;4.07;;;5.30;99.90;;;;;;5049021;28;20217;-75
2023/05/18 02:51:45;;;;;;;6.87;3.57;;;5.30;99.90;;;;;;5046278;28;20503;-75
2023/05/18 02:54:12;;;;;;;7.40;3.90;;;5.30;99.90;;;;;;5046985;28;20205;-74
2023/05/18 02:56:40;;;;;;;6.40;4.00;;;5.30;99.90;;;;;;5047017;28;20270;-75
2023/05/18 02:59:07;;;;;;;7.77;3.93;;;5.30;99.90;;;;;;5050976;28;20276;-74
2023/05/18 03:01:36;;;;;;;5.13;3.47;;;5.30;99.90;;;;;;5044090;28;20569;-75
2023/05/18 03:04:03;;;;;;;9.80;3.63;;;5.30;99.90;;;;;;5046951;28;20675;-74
2023/05/18 03:06:30;;;;;;;8.17;3.83;;;5.20;99.90;;;;;;5050996;28;20202;-75
2023/05/18 03:08:57;;;;;;;5.00;3.70;;;5.20;99.90;;;;;;5048870;28;20211;-74
2023/05/18 03:11:27;;;;;;;7.87;3.97;;;5.20;99.90;;;;;;5048907;28;20628;-73
2023/05/18 03:13:54;;;;;;;6.20;3.63;;;5.10;99.90;;;;;;5046877;28;20272;-75
2023/05/18 03:16:26;;;;;;;7.53;3.37;;;5.00;99.90;;;;;;5046091;28;20248;-75
2023/05/18 03:18:57;;;;;;;10.30;3.90;;;5.00;99.90;;;;;;5046734;28;20207;-75
2023/05/18 03:21:32;;;;;;;6.50;3.40;;;5.00;99.90;;;;;;5047686;28;20578;-75
2023/05/18 03:23:59;;;;;;;10.13;4.10;;;4.90;99.90;;;;;;5046771;28;20226;-74
2023/05/18 03:26:29;;;;;;;8.67;3.40;;;4.80;99.90;;;;;;5048955;28;20213;-75
2023/05/18 03:28:57;;;;;;;7.20;4.30;;;4.80;99.90;;;;;;5052733;28;20232;-73
2023/05/18 03:31:24;;;;;;;7.10;3.67;;;4.80;99.90;;;;;;5045839;28;20288;-74
2023/05/18 03:33:51;;;;;;;6.10;3.97;;;4.80;99.90;;;;;;5059241;28;20211;-74
2023/05/18 03:36:21;;;;;;;7.37;3.63;;;4.80;99.90;;;;;;5048930;28;20258;-74
2023/05/18 03:38:48;;;;;;;5.77;3.77;;;4.70;99.90;;;;;;5046240;28;20262;-75
2023/05/18 03:41:17;;;;;;;9.40;3.40;;;4.70;99.90;;;;;;5051940;28;20531;-75
2023/05/18 03:43:44;;;;;;;7.30;4.20;;;4.70;99.90;;;;;;5065294;28;20262;-75
2023/05/18 03:46:11;;;;;;;7.87;3.90;;;4.70;99.90;;;;;;5046381;28;20287;-77
2023/05/18 03:48:37;;;;;;;5.63;3.50;;;4.80;99.90;;;;;;5044071;28;20258;-75
2023/05/18 03:51:05;;;;;;;6.23;4.03;;;4.80;99.90;;;;;;5049760;28;20641;-76
2023/05/18 03:53:32;;;;;;;7.50;3.73;;;4.80;99.90;;;;;;5047808;28;20703;-75
2023/05/18 03:55:59;;;;;;;6.53;4.20;;;4.80;99.90;;;;;;5047427;28;20241;-76
2023/05/18 03:58:26;;;;;;;6.77;3.67;;;4.80;99.90;;;;;;5063047;28;20202;-76
2023/05/18 04:00:53;;;;;;;10.67;4.10;;;4.80;99.90;;;;;;5044014;28;20296;-75
2023/05/18 04:03:20;;;;;;;6.13;3.70;;;4.80;99.90;;;;;;5043504;28;20227;-76
2023/05/18 04:05:48;;;;;;;11.23;4.10;;;4.80;99.90;;;;;;5058447;28;20215;-75
2023/05/18 04:08:15;;;;;;;6.33;3.50;;;4.90;99.90;;;;;;5044448;28;20205;-75
2023/05/18 04:10:43;;;;;;;8.70;4.20;;;4.90;99.90;;;;;;5045492;28;20210;-74
2023/05/18 04:13:10;;;;;;;4.83;3.63;;;4.90;99.90;;;;;;5044855;28;20203;-75
2023/05/18 04:15:37;;;;;;;12.27;4.20;;;4.90;99.90;;;;;;5042153;28;20230;-74
2023/05/18 04:18:04;;;;;;;5.93;3.60;;;4.90;99.90;;;;;;5047746;28;20660;-75
2023/05/18 04:20:31;;;;;;;8.53;3.87;;;5.00;99.90;;;;;;5044001;28;20217;-74
2023/05/18 04:22:58;;;;;;;11.60;4.30;;;5.00;99.90;;;;;;5047452;28;20560;-74
2023/05/18 04:25:26;;;;;;;9.87;4.40;;;5.00;99.90;;;;;;5061008;28;20260;-76
2023/05/18 04:27:55;;;;;;;8.67;4.20;;;5.10;99.90;;;;;;5045818;28;20290;-76
2023/05/18 04:30:22;;;;;;;9.60;4.00;;;5.20;99.90;;;;;;5056194;28;20597;-75
2023/05/18 04:32:49;;;;;;;7.47;3.87;;;5.20;99.90;;;;;;5047805;28;20290;-75
2023/05/18 04:35:17;;;;;;;7.63;4.10;;;5.30;99.90;;;;;;5046953;28;20582;-74
2023/05/18 04:37:44;;;;;;;7.17;4.10;;;5.40;99.90;;;;;;5044218;28;20284;-75
2023/05/18 04:40:12;;;;;;;7.03;3.77;;;5.40;99.90;;;;;;5044967;28;20233;-74
2023/05/18 04:42:44;;;;;;;5.90;4.17;;;5.50;99.90;;;;;;5046175;28;20287;-75
2023/05/18 04:45:21;;;;;;;8.43;4.00;;;5.60;99.90;;;;;;5046193;28;20236;-76
2023/05/18 04:47:52;;;;;;;10.50;3.93;;;5.70;99.90;;;;;;5046469;28;20238;-75
2023/05/18 04:50:22;;;;;;;16.07;4.73;;;5.80;99.90;;;;;;5041420;28;20208;-75
2023/05/18 04:52:50;;;;;;;8.43;4.23;;;5.90;99.90;;;;;;5042776;28;20206;-74
2023/05/18 04:55:24;;;;;;;8.07;4.00;;;5.90;99.90;;;;;;5041601;28;20356;-75
2023/05/18 04:57:55;;;;;;;8.37;3.83;;;6.00;99.90;;;;;;5043734;28;20667;-75
2023/05/18 05:00:24;;;;;;;7.50;3.63;;;6.20;99.90;;;;;;5044987;28;20687;-76
2023/05/18 05:02:51;;;;;;;8.13;4.27;;;6.20;99.90;;;;;;5044490;28;20256;-76
2023/05/18 05:05:20;;;;;;;6.67;4.00;;;6.30;99.90;;;;;;5042623;28;20225;-75
2023/05/18 05:07:52;;;;;;;9.40;3.33;;;6.40;99.90;;;;;;5049313;28;20616;-75
2023/05/18 05:10:19;;;;;;;8.90;4.00;;;6.50;99.90;;;;;;5050900;28;20288;-76
2023/05/18 05:12:48;;;;;;;7.63;4.30;;;6.60;99.90;;;;;;5052742;28;20211;-75
2023/05/18 05:15:16;;;;;;;5.53;3.53;;;6.70;99.90;;;;;;5050706;28;20213;-74
2023/05/18 05:17:43;;;;;;;7.30;3.83;;;6.80;99.90;;;;;;5045002;28;20217;-75
2023/05/18 05:20:10;;;;;;;8.70;4.20;;;6.90;99.90;;;;;;5050349;28;20212;-75
2023/05/18 05:22:37;;;;;;;8.00;3.80;;;7.00;99.90;;;;;;5045709;28;21041;-75
2023/05/18 05:25:04;;;;;;;9.90;4.30;;;7.10;99.90;;;;;;5050264;28;20319;-76
2023/05/18 05:27:32;;;;;;;8.90;4.00;;;7.20;99.90;;;;;;5048451;28;20203;-75
2023/05/18 05:29:59;;;;;;;6.63;3.73;;;7.30;99.90;;;;;;5049332;28;20213;-75
2023/05/18 05:32:26;;;;;;;6.67;3.60;;;7.40;99.90;;;;;;5046048;28;20220;-76
2023/05/18 05:34:53;;;;;;;7.73;3.70;;;7.50;99.90;;;;;;5048727;28;20206;-75
2023/05/18 05:37:20;;;;;;;9.47;4.13;;;7.60;99.90;;;;;;5047210;28;20199;-75
2023/05/18 05:39:46;;;;;;;9.30;4.17;;;7.70;99.90;;;;;;5043371;28;20211;-75
2023/05/18 05:42:13;;;;;;;8.33;4.10;;;8.00;99.90;;;;;;5049376;28;20647;-75
2023/05/18 05:44:40;;;;;;;10.30;3.90;;;8.40;99.90;;;;;;5051013;28;20701;-74
2023/05/18 05:47:08;;;;;;;6.90;3.60;;;9.10;99.90;;;;;;5061777;28;20246;-76
2023/05/18 05:49:35;;;;;;;5.37;3.30;;;9.70;99.90;;;;;;5043973;28;20268;-76
2023/05/18 05:52:02;;;;;;;9.43;3.20;;;10.60;99.90;;;;;;5044450;28;20266;-76
2023/05/18 05:54:30;;;;;;;5.50;3.07;;;11.20;99.90;;;;;;5047852;28;20269;-76
2023/05/18 05:56:56;;;;;;;8.00;3.20;;;11.70;99.90;;;;;;5045697;28;20214;-76
2023/05/18 05:59:23;;;;;;;8.03;3.10;;;12.10;99.90;;;;;;5047310;28;20213;-75
2023/05/18 06:01:50;;;;;;;8.10;3.23;;;12.40;99.90;;;;;;5049330;28;20235;-76
2023/05/18 06:04:17;;;;;;;7.93;2.93;;;12.90;99.90;;;;;;5045230;28;20225;-75
2023/05/18 06:06:44;;;;;;;5.17;3.00;;;13.50;99.90;;;;;;5045980;28;20216;-76
2023/05/18 06:09:11;;;;;;;5.90;2.73;;;14.20;99.90;;;;;;5046403;28;20681;-75
2023/05/18 06:11:38;;;;;;;8.20;3.30;;;14.80;99.90;;;;;;5041082;28;20201;-75
2023/05/18 06:14:04;;;;;;;6.10;2.53;;;15.40;99.90;;;;;;5042470;28;20718;-76
2023/05/18 06:16:32;;;;;;;9.95;2.58;;;15.90;99.90;;;;;;5047845;28;20279;-75
2023/05/18 06:18:59;;;;;;;5.35;2.53;;;16.30;99.90;;;;;;5043386;28;20304;-76
2023/05/18 06:21:26;;;;;;;5.78;2.55;;;16.60;99.90;;;;;;5047526;28;20201;-77
2023/05/18 06:23:52;;;;;;;5.13;2.38;;;16.70;99.90;;;;;;5065646;28;20232;-77
2023/05/18 06:26:21;;;;;;;4.05;2.20;;;16.90;99.90;;;;;;5045778;28;20665;-77
2023/05/18 06:28:48;;;;;;;3.38;1.88;;;16.90;99.90;;;;;;5045732;28;20254;-77
2023/05/18 06:31:17;;;;;;;7.78;2.58;;;17.10;99.90;;;;;;5045469;28;20230;-76
2023/05/18 06:33:44;;;;;;;6.93;2.00;;;16.90;99.90;;;;;;5048612;28;20213;-75
2023/05/18 06:36:11;;;;;;;6.10;2.05;;;16.60;99.90;;;;;;5044802;28;20216;-75
2023/05/18 06:38:38;;;;;;;7.70;2.20;;;16.40;99.90;;;;;;5047946;28;20212;-75
2023/05/18 06:41:05;;;;;;;4.60;2.20;;;16.30;99.90;;;;;;5048059;28;20198;-76
2023/05/18 06:43:31;;;;;;;5.38;2.08;;;16.30;99.90;;;;;;5043023;28;20221;-76
2023/05/18 06:45:58;;;;;;;5.47;2.13;;;16.10;99.90;;;;;;5047479;28;20233;-75
2023/05/18 06:48:27;;;;;;;3.60;2.15;;;16.10;99.90;;;;;;5045859;28;20198;-75
2023/05/18 06:50:54;;;;;;;4.75;2.30;;;16.20;99.90;;;;;;5044869;28;20884;-75
2023/05/18 06:53:22;;;;;;;6.20;2.50;;;16.70;99.90;;;;;;5041766;28;20585;-79
2023/05/18 06:55:49;;;;;;;8.80;2.58;;;16.60;99.90;;;;;;5064336;28;20209;-75
2023/05/18 06:58:16;;;;;;;5.57;2.35;;;16.50;99.90;;;;;;5063480;28;20213;-76
2023/05/18 07:00:43;;;;;;;4.97;2.17;;;16.50;99.90;;;;;;5049086;28;20228;-75
2023/05/18 07:03:09;;;;;;;7.35;2.17;;;16.40;99.90;;;;;;5044932;28;20261;-76
2023/05/18 07:05:37;;;;;;;5.85;2.20;;;16.50;99.90;;;;;;5049798;28;20229;-75
2023/05/18 07:08:05;;;;;;;4.40;1.95;;;16.40;99.90;;;;;;5045678;28;20224;-75
2023/05/18 07:10:34;;;;;;;4.85;1.85;;;16.50;99.90;;;;;;5050450;28;20209;-76
2023/05/18 07:13:01;;;;;;;3.92;1.75;;;16.80;99.90;;;;;;5047640;28;20194;-75
2023/05/18 07:15:28;;;;;;;6.15;1.90;;;17.20;99.90;;;;;;5046531;28;20707;-75
2023/05/18 07:17:55;;;;;;;5.70;1.75;;;17.50;99.90;;;;;;5050657;28;20218;-76
2023/05/18 07:20:22;;;;;;;7.50;1.90;;;17.60;99.90;;;;;;5051046;28;20638;-75
2023/05/18 07:22:54;;;;;;;4.18;1.85;;;18.10;99.90;;;;;;5050622;28;20209;-74
2023/05/18 07:25:21;;;;;;;6.07;2.05;;;18.20;99.90;;;;;;5046407;28;20235;-75
2023/05/18 07:27:50;;;;;;;6.30;1.83;;;18.20;99.90;;;;;;5050113;28;20213;-75
2023/05/18 07:30:17;;;;;;;4.38;2.17;;;18.10;99.90;;;;;;5044104;28;20237;-76
2023/05/18 07:32:44;;;;;;;6.82;1.98;;;17.80;99.90;;;;;;5049488;28;20196;-75
2023/05/18 07:35:11;;;;;;;6.32;1.88;;;17.40;99.90;;;;;;5049394;28;20211;-76
2023/05/18 07:37:44;;;;;;;7.20;2.10;;;17.30;99.90;;;;;;5050662;28;20204;-76
2023/05/18 07:40:11;;;;;;;7.97;2.03;;;17.30;99.90;;;;;;5046017;28;20211;-75
2023/05/18 07:42:39;;;;;;;6.25;2.17;;;17.40;99.90;;;;;;5049388;28;20255;-75
2023/05/18 07:45:07;;;;;;;6.20;2.10;;;17.60;99.90;;;;;;5047117;28;20240;-76
2023/05/18 07:47:34;;;;;;;8.70;2.45;;;17.80;99.90;;;;;;5063417;28;20213;-76
2023/05/18 07:50:01;;;;;;;6.18;1.77;;;17.80;99.90;;;;;;5049139;28;20213;-76
2023/05/18 07:52:29;;;;;;;6.05;2.00;;;17.60;99.90;;;;;;5046876;28;20205;-76
2023/05/18 07:54:56;;;;;;;3.47;1.85;;;17.20;99.90;;;;;;5050223;28;20201;-75
2023/05/18 07:57:23;;;;;;;6.90;2.30;;;17.00;99.90;;;;;;5050317;28;20232;-76
2023/05/18 07:59:51;;;;;;;6.38;2.17;;;17.20;99.90;;;;;;5046776;28;20221;-75
2023/05/18 08:02:18;;;;;;;4.10;1.75;;;17.60;99.90;;;;;;5049751;28;20618;-75
2023/05/18 08:04:46;;;;;;;6.18;2.25;;;17.40;99.90;;;;;;5049302;28;20404;-75
2023/05/18 08:07:13;;;;;;;2.80;1.48;;;17.40;99.90;;;;;;5051291;28;20244;-76
2023/05/18 08:09:40;;;;;;;5.22;2.00;;;17.40;99.90;;;;;;5050050;28;20231;-76
2023/05/18 08:12:07;;;;;;;6.47;2.08;;;17.50;99.90;;;;;;5048901;28;20209;-75
2023/05/18 08:14:34;;;;;;;8.10;2.08;;;17.40;99.90;;;;;;5049109;28;20221;-76
2023/05/18 08:17:03;;;;;;;7.47;2.13;;;17.40;99.90;;;;;;5045416;28;20201;-77
2023/05/18 08:19:30;;;;;;;7.57;1.98;;;17.10;99.90;;;;;;5041662;28;20225;-75
2023/05/18 08:21:57;;;;;;;5.47;1.92;;;16.70;99.90;;;;;;5049678;28;20217;-75
2023/05/18 08:24:24;;;;;;;5.93;1.95;;;16.50;99.90;;;;;;5049891;28;20229;-75
2023/05/18 08:26:51;;;;;;;5.72;2.03;;;16.30;99.90;;;;;;5045393;28;20258;-75
2023/05/18 08:29:18;;;;;;;7.80;2.00;;;16.10;99.90;;;;;;5049294;28;20735;-75
2023/05/18 08:31:45;;;;;;;5.35;2.05;;;16.00;99.90;;;;;;5048909;28;20244;-77
2023/05/18 08:34:15;;;;;;;5.97;2.30;;;15.80;99.90;;;;;;5049117;28;20715;-75
2023/05/18 08:36:44;;;;;;;6.72;2.15;;;15.80;99.90;;;;;;5049485;28;20201;-74
2023/05/18 08:39:12;;;;;;;6.75;2.22;;;15.70;99.90;;;;;;5045222;28;20295;-76
2023/05/18 08:42:02;;;;;;;7.07;2.25;;;15.80;99.90;;;;;;5046930;28;20624;-74
2023/05/18 08:45:01;;;;;;;3.30;1.90;;;15.90;99.90;;;;;;5047290;28;20236;-76
2023/05/18 08:47:30;;;;;;;4.93;1.88;;;16.00;99.90;;;;;;5036683;28;20228;-76
2023/05/18 08:50:00;;;;;;;5.03;2.35;;;16.30;99.90;;;;;;5058207;28;20260;-76
2023/05/18 08:52:34;;;;;;;4.95;1.80;;;16.60;99.90;;;;;;5047923;28;20494;-76
2023/05/18 08:55:05;;;;;;;5.72;2.28;;;16.60;99.90;;;;;;5049447;28;20312;-75
2023/05/18 08:57:35;;;;;;;5.50;2.13;;;16.90;99.90;;;;;;5040223;28;20228;-76
2023/05/18 09:00:04;;;;;;;4.03;2.20;;;16.70;99.90;;;;;;5049139;28;20228;-76
2023/05/18 09:02:32;;;;;;;5.13;2.10;;;16.30;99.90;;;;;;5046905;28;20204;-75
2023/05/18 09:05:00;;;;;;;4.57;2.10;;;15.90;99.90;;;;;;5051430;28;20228;-75
2023/05/18 09:07:28;;;;;;;6.22;1.90;;;15.80;99.90;;;;;;5046448;28;20209;-77
2023/05/18 09:09:56;;;;;;;5.72;2.03;;;15.90;99.90;;;;;;5049580;28;20205;-75
2023/05/18 09:12:24;;;;;;;10.88;2.10;;;16.00;99.90;;;;;;5045167;28;20219;-75
2023/05/18 09:14:52;;;;;;;7.30;2.28;;;15.80;99.90;;;;;;5047122;28;20218;-76
2023/05/18 09:17:21;;;;;;;3.83;1.80;;;15.80;99.90;;;;;;5049099;28;20270;-75
2023/05/18 09:19:48;;;;;;;4.63;1.90;;;15.70;99.90;;;;;;5045442;28;20716;-76
2023/05/18 09:22:15;;;;;;;6.00;2.60;;;15.70;99.90;;;;;;5047324;28;20641;-75
2023/05/18 09:24:42;;;;;;;4.63;1.90;;;15.70;99.90;;;;;;5044572;28;20662;-77
2023/05/18 09:27:09;;;;;;;4.10;2.13;;;15.70;99.90;;;;;;5049208;28;20592;-77
2023/05/18 09:29:56;;;;;;;5.57;2.10;;;15.90;99.90;;;;;;5044690;28;20715;-75
2023/05/18 09:32:25;;;;;;;7.13;2.40;;;16.10;99.90;;;;;;5043913;28;20213;-75
2023/05/18 09:34:53;;;;;;;7.40;2.65;;;16.30;99.90;;;;;;5048193;28;20610;-75
2023/05/18 09:37:21;;;;;;;3.83;1.95;;;16.50;99.90;;;;;;5048862;28;20205;-76
2023/05/18 09:39:59;;;;;;;7.72;2.10;;;16.40;99.90;;;;;;5043689;28;20197;-77
2023/05/18 09:42:41;;;;;;;6.20;2.10;;;16.20;99.90;;;;;;5038660;28;20697;-76
2023/05/18 09:45:25;;;;;;;6.20;2.13;;;16.10;99.90;;;;;;5047874;28;20312;-77
2023/05/18 09:47:53;;;;;;;6.65;2.20;;;16.10;99.90;;;;;;5047326;28;20205;-76
2023/05/18 09:50:21;;;;;;;5.22;2.05;;;16.10;99.90;;;;;;5044586;28;20205;-76
2023/05/18 09:52:48;;;;;;;4.25;2.00;;;16.20;99.90;;;;;;5049391;28;20235;-77
2023/05/18 09:55:17;;;;;;;6.63;1.95;;;16.50;99.90;;;;;;5048049;28;20258;-76
2023/05/18 09:57:48;;;;;;;7.10;2.17;;;16.70;99.90;;;;;;5050771;28;20193;-75
2023/05/18 10:00:18;;;;;;;6.95;2.30;;;17.00;99.90;;;;;;5052784;28;20244;-76
2023/05/18 10:02:47;;;;;;;6.03;2.08;;;17.20;99.90;;;;;;5052109;28;20219;-76
2023/05/18 10:05:22;;;;;;;5.57;2.40;;;17.30;99.90;;;;;;5053721;28;20677;-76
2023/05/18 10:07:50;;;;;;;5.97;2.30;;;17.40;99.90;;;;;;5048774;28;20554;-76
2023/05/18 10:10:19;;;;;;;5.03;2.28;;;17.40;99.90;;;;;;5052146;28;20315;-76
2023/05/18 10:12:49;;;;;;;5.35;2.00;;;17.50;99.90;;;;;;5049246;28;20209;-77
2023/05/18 10:15:18;;;;;;;5.57;2.50;;;17.60;99.90;;;;;;5051820;28;20221;-76
2023/05/18 10:17:46;;;;;;;7.38;2.35;;;17.60;99.90;;;;;;5052141;28;20213;-75
2023/05/18 10:20:18;;;;;;;5.00;2.35;;;17.60;99.90;;;;;;5051794;28;20636;-75
2023/05/18 10:22:47;;;;;;;6.20;2.20;;;17.60;99.90;;;;;;5048080;28;20659;-76
2023/05/18 10:25:18;;;;;;;6.38;2.47;;;17.60;99.90;;;;;;5051314;28;20233;-76
2023/05/18 10:27:47;;;;;;;8.27;2.47;;;17.80;99.90;;;;;;5048252;28;20212;-76
2023/05/18 10:30:16;;;;;;;7.05;2.30;;;17.80;99.90;;;;;;5049637;28;20709;-77
2023/05/18 10:32:45;;;;;;;5.88;2.20;;;17.60;99.90;;;;;;5051115;28;20220;-76
2023/05/18 10:35:13;;;;;;;5.47;2.30;;;17.50;99.50;;;;;;5049900;28;20209;-76
2023/05/18 10:37:47;;;;;;;3.40;2.20;;;17.50;99.90;;;;;;5051237;28;20290;-77
2023/05/18 10:40:15;;;;;;;4.03;2.30;;;17.60;99.90;;;;;;5059953;28;20204;-75
2023/05/18 10:42:44;;;;;;;4.40;2.30;;;17.50;99.90;;;;;;5051134;28;20712;-75
2023/05/18 10:45:11;;;;;;;4.30;2.78;;;17.30;99.90;;;;;;5050592;28;20221;-76
2023/05/18 10:47:41;;;;;;;5.00;2.35;;;17.20;99.90;;;;;;5051694;28;20472;-75
2023/05/18 10:50:09;;;;;;;6.72;2.85;;;17.30;99.90;;;;;;5065357;28;20201;-76
2023/05/18 10:52:36;;;;;;;9.30;2.78;;;17.40;99.90;;;;;;5049872;28;20251;-77
2023/05/18 10:55:06;;;;;;;6.40;2.83;;;17.40;99.90;;;;;;5047122;28;20224;-75
2023/05/18 10:57:48;;;;;;;6.13;2.70;;;17.40;99.90;;;;;;5047110;28;20311;-75
2023/05/18 11:00:15;;;;;;;5.38;2.70;;;17.50;99.90;;;;;;5051149;28;20228;-77
2023/05/18 11:02:43;;;;;;;6.07;2.50;;;17.80;99.90;;;;;;5046528;28;20209;-76
2023/05/18 11:05:11;;;;;;;3.92;2.35;;;17.90;99.90;;;;;;5053538;28;20532;-75
2023/05/18 11:07:38;;;;;;;4.32;2.13;;;18.00;99.90;;;;;;5049423;28;20222;-75
2023/05/18 11:10:10;;;;;;;5.57;2.70;;;17.90;99.40;;;;;;5047259;28;20201;-75
2023/05/18 11:12:39;;;;;;;5.85;2.40;;;17.90;98.80;;;;;;5048865;28;20742;-75
2023/05/18 11:15:06;;;;;;;4.55;2.22;;;17.80;98.90;;;;;;5049138;28;20232;-74
2023/05/18 11:17:33;;;;;;;6.18;2.35;;;17.70;99.40;;;;;;5046881;28;20193;-75
2023/05/18 11:20:11;;;;;;;6.20;2.38;;;17.70;99.10;;;;;;5056992;28;20708;-76
2023/05/18 11:22:57;;;;;;;6.70;2.80;;;17.60;99.90;;;;;;5042349;28;20235;-75
2023/05/18 11:25:24;;;;;;;10.30;3.42;;;17.70;99.90;;;;;;5046640;28;20315;-75
2023/05/18 11:27:53;;;;;;;4.82;2.40;;;17.90;99.40;;;;;;5047020;28;20224;-75
2023/05/18 11:30:30;;;;;;;5.07;2.20;;;18.00;99.90;;;;;;5058161;28;20229;-75
2023/05/18 11:33:09;;;;;;;3.80;2.30;;;18.20;99.90;;;;;;5039410;28;20219;-76
2023/05/18 11:36:12;;;;;;;4.47;2.38;;;18.40;99.80;;;;;;5040081;28;20291;-76
2023/05/18 11:39:01;;;;;;;6.97;3.25;;;18.50;99.90;;;;;;5044521;28;20716;-75
2023/05/18 11:41:38;;;;;;;4.75;2.10;;;18.40;98.20;;;;;;5040045;28;20630;-76
2023/05/18 11:44:13;;;;;;;6.75;2.55;;;18.30;99.40;;;;;;5045141;28;20234;-75
2023/05/18 11:47:04;;;;;;;4.40;2.20;;;18.50;99.30;;;;;;5044765;28;20278;-75
2023/05/18 11:49:35;;;;;;;5.38;2.50;;;18.40;99.20;;;;;;5051108;28;20232;-76
2023/05/18 11:52:03;;;;;;;7.82;2.78;;;18.30;99.00;;;;;;5041892;28;20194;-75
2023/05/18 11:54:37;;;;;;;8.48;3.47;;;18.20;99.20;;;;;;5042442;28;20222;-75
2023/05/18 11:57:04;;;;;;;8.55;2.70;;;18.20;99.00;;;;;;5042251;28;20205;-75
2023/05/18 11:59:39;;;;;;;5.97;2.63;;;18.30;99.40;;;;;;5043490;28;20296;-75
2023/05/18 12:02:10;;;;;;;9.60;3.13;;;18.40;99.90;;;;;;5038922;28;20201;-76
2023/05/18 12:04:49;;;;;;;5.40;2.70;;;18.40;99.20;;;;;;5046415;28;20202;-75
2023/05/18 12:07:50;;;;;;;6.90;2.70;;;18.60;99.70;;;;;;5047320;28;20236;-82
2023/05/18 12:10:41;;;;;;;3.63;2.17;;;18.70;99.00;;;;;;5029609;28;20205;-84
2023/05/18 12:13:24;;;;;;;4.88;2.53;;;18.80;98.70;;;;;;5055699;28;20635;-83
2023/05/18 12:16:39;;;;;;;7.03;2.65;;;18.70;98.10;;;;;;5044040;28;20288;-83
2023/05/18 12:19:31;;;;;;;3.95;2.65;;;18.50;99.40;;;;;;5047987;28;20296;-82
2023/05/18 12:22:03;;;;;;;6.93;2.75;;;18.30;99.00;;;;;;5061501;28;20236;-76
2023/05/18 12:24:30;;;;;;;3.88;2.38;;;18.40;98.80;;;;;;5044601;28;20205;-76
2023/05/18 12:27:03;;;;;;;9.20;3.20;;;18.40;99.10;;;;;;5043653;28;20228;-76
2023/05/18 12:29:37;;;;;;;7.55;2.72;;;18.60;98.40;;;;;;5039019;28;20228;-74
2023/05/18 12:32:06;;;;;;;11.45;2.88;;;18.70;98.10;;;;;;5044112;28;20239;-75
2023/05/18 12:34:33;;;;;;;5.25;2.35;;;18.70;98.30;;;;;;5041330;28;20193;-76
2023/05/18 12:37:00;;;;;;;4.13;2.25;;;18.60;98.50;;;;;;5040005;28;20629;-75
2023/05/18 12:39:27;;;;;;;5.53;3.10;;;18.40;98.00;;;;;;5042404;28;20713;-77
2023/05/18 12:42:10;;;;;;;4.50;2.22;;;18.10;97.90;;;;;;5046887;28;20209;-76
2023/05/18 12:44:38;;;;;;;6.30;2.80;;;17.90;98.40;;;;;;5057725;28;20221;-75
2023/05/18 12:47:04;;;;;;;4.97;2.50;;;17.70;98.10;;;;;;5048782;28;20225;-75
2023/05/18 12:49:38;;;;;;;4.78;2.45;;;17.60;98.10;;;;;;5045197;28;20232;-76
2023/05/18 12:52:10;;;;;;;5.85;2.05;;;17.60;98.40;;;;;;5048001;28;20224;-76
2023/05/18 12:54:54;;;;;;;5.60;2.40;;;17.70;99.60;;;;;;5041860;28;20212;-75
2023/05/18 12:57:25;;;;;;;3.17;1.73;;;17.80;97.60;;;;;;5043032;28;20283;-76
2023/05/18 12:59:53;;;;;;;6.30;2.20;;;17.80;98.00;;;;;;5033335;28;20439;-77
2023/05/18 13:02:28;;;;;;;5.65;2.45;;;18.30;98.00;;;;;;5042677;28;20324;-79
2023/05/18 13:05:06;;;;;;;6.88;2.55;;;18.30;98.90;;;;;;5044205;28;20205;-78